Time;durP1;ratioP1;P1;durP2;ratioP2;P2;SDS_P1;SDS_P2;PMS_P1;PMS_P2;Temp;Humidity;BMP_temperature;BMP_pressure;BME280_temperature;BME280_humidity;BME280_pressure;Samples;Min_cycle;Max_cycle;Signal;HPM_P1;HPM_P2
2021/01/01 00:00:24;;;;;;;;;36.00;36.00;;;;;5.55;71.41;101431.75;4374764;32;13096;-80
2021/01/01 00:03:19;;;;;;;;;37.75;37.75;;;;;5.53;71.34;101428.47;4369979;32;13136;-82
2021/01/01 00:06:15;;;;;;;;;35.25;31.00;;;;;5.35;71.85;101432.63;4374191;32;12456;-82
2021/01/01 00:09:11;;;;;;;;;57.00;49.25;;;;;5.44;71.61;101432.88;4375549;32;12459;-82
2021/01/01 00:12:07;;;;;;;;;68.00;56.00;;;;;5.35;71.62;101423.56;4360929;33;12418;-82
2021/01/01 00:15:05;;;;;;;;;51.75;46.25;;;;;5.48;71.30;101421.06;4359973;33;8910;-82
2021/01/01 00:18:00;;;;;;;;;64.67;54.00;;;;;5.50;71.15;101412.56;4362719;32;12435;-82
2021/01/01 00:20:56;;;;;;;;;65.67;53.33;;;;;5.42;71.52;101408.47;4355566;32;13026;-82
2021/01/01 00:23:52;;;;;;;;;51.75;41.75;;;;;5.40;71.51;101412.59;4373369;32;12450;-82
2021/01/01 00:26:51;;;;;;;;;78.67;63.67;;;;;5.21;71.85;101404.97;4358927;32;12434;-82
2021/01/01 00:29:47;;;;;;;;;67.67;56.33;;;;;5.17;72.17;101398.38;4389001;32;8962;-82
2021/01/01 00:32:44;;;;;;;;;39.75;39.00;;;;;5.07;72.48;101392.09;4374276;32;9564;-82
2021/01/01 00:35:40;;;;;;;;;50.25;45.00;;;;;5.14;72.35;101398.94;4371427;32;12428;-82
2021/01/01 00:38:36;;;;;;;;;38.25;36.00;;;;;5.09;72.32;101393.47;4359018;32;12489;-82
2021/01/01 00:41:35;;;;;;;;;39.25;38.00;;;;;4.99;72.80;101394.31;4361820;32;12424;-82
2021/01/01 00:44:31;;;;;;;;;30.50;28.75;;;;;5.07;72.65;101381.12;4349570;33;12364;-83
2021/01/01 00:47:26;;;;;;;;;32.75;30.75;;;;;5.14;72.21;101390.72;4362985;32;12424;-82
2021/01/01 00:50:22;;;;;;;;;36.75;35.50;;;;;5.02;72.51;101390.19;4364185;32;12401;-82
2021/01/01 00:53:18;;;;;;;;;39.25;39.25;;;;;5.01;72.53;101394.03;4358435;32;13025;-82
2021/01/01 00:56:24;;;;;;;;;39.25;39.25;;;;;5.07;72.32;101381.12;4359281;33;12485;-82
2021/01/01 00:59:20;;;;;;;;;41.00;38.25;;;;;5.13;72.01;101391.78;4369574;32;12349;-82
2021/01/01 01:02:16;;;;;;;;;54.25;46.75;;;;;5.14;71.92;101382.50;4375119;32;12438;-82
2021/01/01 01:05:12;;;;;;;;;47.25;42.75;;;;;4.96;72.38;101383.06;4370248;32;12390;-82
2021/01/01 01:08:07;;;;;;;;;52.50;45.00;;;;;5.05;72.35;101378.66;4344636;33;12549;-82
2021/01/01 01:11:03;;;;;;;;;71.33;58.33;;;;;5.15;72.04;101367.69;4343857;33;12378;-82
2021/01/01 01:14:00;;;;;;;;;61.33;49.67;;;;;4.99;72.32;101369.63;4347917;33;8907;-81
2021/01/01 01:16:56;;;;;;;;;79.67;63.00;;;;;4.99;72.19;101361.41;4351866;32;12616;-82
2021/01/01 01:19:51;;;;;;;;;76.00;61.00;;;;;5.04;72.05;101366.03;4344537;33;9027;-82
2021/01/01 01:22:47;;;;;;;;;75.67;60.33;;;;;4.97;72.40;101358.09;4344166;33;8896;-82
2021/01/01 01:25:43;;;;;;;;;67.00;55.00;;;;;4.93;72.28;101359.75;4349925;32;8893;-81
2021/01/01 01:28:38;;;;;;;;;54.00;47.25;;;;;5.01;72.13;101352.91;4358038;33;8941;-82
2021/01/01 01:31:34;;;;;;;;;49.00;44.00;;;;;4.97;72.16;101352.63;4358701;33;12494;-81
2021/01/01 01:34:30;;;;;;;;;57.25;44.75;;;;;4.93;72.46;101350.72;4358684;32;12409;-81
2021/01/01 01:37:26;;;;;;;;;32.50;31.00;;;;;4.82;72.66;101349.91;4373749;32;12368;-81
2021/01/01 01:40:22;;;;;;;;;54.00;46.25;;;;;5.01;72.26;101342.75;4367648;32;12509;-81
2021/01/01 01:43:18;;;;;;;;;39.75;39.25;;;;;4.94;72.42;101336.72;4358730;32;12355;-81
2021/01/01 01:46:14;;;;;;;;;53.00;44.00;;;;;4.98;72.29;101342.47;4359444;33;12350;-81
2021/01/01 01:49:17;;;;;;;;;58.25;47.25;;;;;5.01;71.95;101331.78;4347178;32;12438;-81
2021/01/01 01:52:12;;;;;;;;;43.50;40.00;;;;;5.01;72.10;101326.31;4366001;32;12563;-81
2021/01/01 01:55:09;;;;;;;;;55.00;43.50;;;;;4.74;72.46;101334.84;4358452;32;12451;-80
2021/01/01 01:58:05;;;;;;;;;34.25;33.50;;;;;4.75;72.56;101335.66;4358247;33;12493;-81
2021/01/01 02:01:02;;;;;;;;;25.00;25.00;;;;;4.67;72.82;101326.06;4359201;32;12479;-82
2021/01/01 02:03:58;;;;;;;;;60.00;48.00;;;;;4.73;72.85;101324.16;4359232;32;12449;-81
2021/01/01 02:06:53;;;;;;;;;40.50;38.50;;;;;4.90;72.46;101326.59;4370191;32;12553;-81
2021/01/01 02:09:49;;;;;;;;;51.67;46.33;;;;;4.92;72.35;101325.25;4373413;32;12423;-81
2021/01/01 02:12:45;;;;;;;;;44.50;40.50;;;;;4.84;72.48;101314.03;4373693;32;12448;-81
2021/01/01 02:15:40;;;;;;;;;46.75;44.25;;;;;4.82;72.84;101313.44;4372608;32;12574;-81
2021/01/01 02:18:41;;;;;;;;;38.00;38.00;;;;;4.86;72.46;101307.16;4361010;32;12418;-81
2021/01/01 02:21:41;;;;;;;;;42.00;40.50;;;;;4.89;72.72;101303.84;4367383;32;12429;-81
2021/01/01 02:24:37;;;;;;;;;36.00;34.25;;;;;4.86;72.65;101312.63;4357951;33;12476;-81
2021/01/01 02:27:33;;;;;;;;;54.50;47.50;;;;;4.99;72.03;101303.03;4366722;32;12454;-81
2021/01/01 02:30:31;;;;;;;;;50.25;45.75;;;;;4.96;71.70;101309.84;4357929;32;12482;-82
2021/01/01 02:33:27;;;;;;;;;46.25;43.00;;;;;5.00;71.62;101299.16;4385633;32;12383;-81
2021/01/01 02:36:23;;;;;;;;;53.75;46.00;;;;;5.15;71.24;101301.87;4388122;32;12419;-81
2021/01/01 02:39:19;;;;;;;;;51.00;44.75;;;;;5.08;71.58;101297.78;4387807;32;12385;-82
2021/01/01 02:42:15;;;;;;;;;47.25;41.25;;;;;5.05;71.61;101295.56;4382511;32;12434;-81
2021/01/01 02:45:11;;;;;;;;;46.25;42.50;;;;;5.10;71.65;101298.31;4362770;32;12420;-81
2021/01/01 02:48:15;;;;;;;;;51.50;45.25;;;;;4.85;72.53;101293.72;4367675;32;12474;-81
2021/01/01 02:51:11;;;;;;;;;42.75;41.00;;;;;4.83;72.85;101284.94;4360978;33;12454;-81
2021/01/01 02:54:07;;;;;;;;;33.50;32.75;;;;;4.81;73.28;101281.66;4373105;32;12569;-81
2021/01/01 02:57:02;;;;;;;;;30.25;30.25;;;;;4.83;73.54;101280.31;4376066;32;12497;-82
2021/01/01 02:59:58;;;;;;;;;31.00;27.00;;;;;5.02;73.05;101275.03;4376621;32;12399;-82
2021/01/01 03:02:54;;;;;;;;;27.50;27.50;;;;;5.18;72.51;101276.63;4369693;32;12814;-81
2021/01/01 03:05:50;;;;;;;;;29.25;29.25;;;;;5.27;72.19;101285.91;4360349;33;12534;-81
2021/01/01 03:08:46;;;;;;;;;29.50;28.25;;;;;5.22;72.31;101288.69;4369876;32;12458;-81
2021/01/01 03:11:42;;;;;;;;;30.50;30.25;;;;;5.44;71.77;101285.53;4363047;32;12493;-81
2021/01/01 03:14:38;;;;;;;;;35.25;35.25;;;;;5.41;71.81;101283.38;4363617;32;12401;-81
2021/01/01 03:17:34;;;;;;;;;35.75;34.50;;;;;5.50;71.40;101272.62;4371158;32;12564;-81
2021/01/01 03:20:30;;;;;;;;;27.50;27.50;;;;;5.58;71.10;101266.53;4378245;32;12394;-81
2021/01/01 03:23:25;;;;;;;;;22.75;22.75;;;;;5.73;70.73;101262.88;4375245;32;12504;-81
2021/01/01 03:26:21;;;;;;;;;28.00;25.75;;;;;5.63;71.06;101271.19;4376122;32;13037;-81
2021/01/01 03:29:17;;;;;;;;;43.50;41.00;;;;;5.71;70.86;101284.31;4366448;32;12453;-80
2021/01/01 03:32:13;;;;;;;;;34.50;34.50;;;;;5.57;70.46;101303.31;4374450;32;12607;-81
2021/01/01 03:35:09;;;;;;;;;34.25;30.00;;;;;5.38;70.95;101310.56;4366189;32;12431;-81
2021/01/01 03:38:04;;;;;;;;;36.00;35.25;;;;;5.40;71.08;101311.09;4374847;32;12491;-80
2021/01/01 03:41:00;;;;;;;;;27.50;27.50;;;;;5.41;71.00;101305.31;4374827;32;12462;-81
2021/01/01 03:43:56;;;;;;;;;28.50;28.25;;;;;5.25;71.63;101307.31;4362464;32;12505;-81
2021/01/01 03:46:51;;;;;;;;;44.00;40.00;;;;;5.32;71.30;101319.91;4362347;32;12434;-81
2021/01/01 03:49:47;;;;;;;;;33.50;33.50;;;;;5.17;71.70;101316.09;4371173;32;12433;-81
2021/01/01 03:52:43;;;;;;;;;36.50;34.50;;;;;5.28;71.40;101323.19;4379341;32;12419;-81
2021/01/01 03:55:40;;;;;;;;;38.00;34.75;;;;;5.16;71.71;101324.63;4377423;32;13089;-80
2021/01/01 03:58:36;;;;;;;;;28.25;27.00;;;;;5.16;71.62;101335.59;4389718;32;12427;-81
2021/01/01 04:01:33;;;;;;;;;32.50;32.50;;;;;5.07;71.89;101329.84;4382350;32;12443;-81
2021/01/01 04:04:29;;;;;;;;;31.75;31.75;;;;;5.04;72.04;101327.66;4377819;32;12411;-81
2021/01/01 04:07:25;;;;;;;;;34.25;33.25;;;;;5.19;71.78;101341.31;4389313;32;12593;-81
2021/01/01 04:10:21;;;;;;;;;42.25;38.50;;;;;5.20;71.79;101333.91;4364032;32;12573;-81
2021/01/01 04:13:17;;;;;;;;;37.50;37.50;;;;;5.43;71.41;101332.47;4370016;32;12448;-81
2021/01/01 04:16:12;;;;;;;;;32.00;30.25;;;;;5.41;71.44;101326.44;4370124;32;12570;-81
2021/01/01 04:19:08;;;;;;;;;31.00;27.75;;;;;5.58;70.79;101344.19;4374191;32;12439;-81
2021/01/01 04:22:04;;;;;;;;;37.25;34.50;;;;;5.67;70.65;101352.66;4375486;32;12389;-81
2021/01/01 04:25:00;;;;;;;;;37.50;37.50;;;;;5.75;70.46;101365.81;4375449;32;12436;-81
2021/01/01 04:27:55;;;;;;;;;30.00;30.00;;;;;5.75;70.34;101362.22;4375967;32;12785;-81
2021/01/01 04:30:51;;;;;;;;;36.75;35.50;;;;;5.85;69.94;101360.25;4366966;32;12402;-82
2021/01/01 04:33:47;;;;;;;;;39.75;38.50;;;;;5.87;70.01;101354.47;4379289;32;12490;-81
2021/01/01 04:36:43;;;;;;;;;29.25;27.50;;;;;5.92;69.82;101370.16;4374895;32;12422;-82
2021/01/01 04:39:39;;;;;;;;;29.00;27.50;;;;;5.90;69.81;101358.56;4375736;32;12487;-81
2021/01/01 04:42:36;;;;;;;;;18.50;18.25;;;;;5.89;69.90;101340.47;4363272;32;13035;-81
2021/01/01 04:45:32;;;;;;;;;22.50;22.50;;;;;5.95;69.40;101337.44;4387476;32;13011;-81
2021/01/01 04:48:28;;;;;;;;;20.50;20.00;;;;;5.98;69.40;101339.63;4378531;32;13155;-79
2021/01/01 04:51:24;;;;;;;;;24.00;24.00;;;;;5.93;69.58;101344.31;4363106;32;12591;-81
2021/01/01 04:54:26;;;;;;;;;32.25;31.75;;;;;5.86;69.58;101350.09;4384069;32;12398;-81
2021/01/01 04:57:22;;;;;;;;;49.50;44.75;;;;;5.94;69.64;101340.47;4390607;32;13056;-81
2021/01/01 05:00:19;;;;;;;;;28.50;28.50;;;;;5.87;69.63;101336.09;4390885;32;12463;-80
2021/01/01 05:03:15;;;;;;;;;34.50;34.50;;;;;5.92;69.69;101364.66;4368357;32;12495;-80
2021/01/01 05:06:10;;;;;;;;;28.00;26.75;;;;;5.98;69.48;101367.09;4373049;32;12411;-80
2021/01/01 05:09:07;;;;;;;;;23.75;23.75;;;;;5.83;70.01;101364.41;4374078;32;12413;-80
2021/01/01 05:12:07;;;;;;;;;34.00;32.50;;;;;5.89;69.61;101381.66;4372808;32;12462;-80
2021/01/01 05:15:03;;;;;;;;;31.75;31.75;;;;;5.76;70.14;101378.44;4374064;32;12412;-80
2021/01/01 05:17:59;;;;;;;;;33.50;32.50;;;;;5.76;70.21;101367.44;4365863;32;12514;-80
2021/01/01 05:20:57;;;;;;;;;43.25;42.50;;;;;5.85;69.93;101370.44;4359514;32;12500;-80
2021/01/01 05:23:55;;;;;;;;;39.50;39.50;;;;;5.83;69.98;101383.63;4359292;32;13101;-80
2021/01/01 05:26:54;;;;;;;;;32.50;31.50;;;;;5.91;69.66;101377.56;4359677;32;12568;-80
2021/01/01 05:29:55;;;;;;;;;45.25;42.75;;;;;5.82;70.18;101392.94;4358789;32;12474;-80
2021/01/01 05:32:52;;;;;;;;;30.00;28.00;;;;;5.78;70.21;101373.47;4371069;32;12502;-80
2021/01/01 05:35:48;;;;;;;;;27.75;27.75;;;;;5.76;69.99;101361.97;4373879;32;12421;-80
2021/01/01 05:38:46;;;;;;;;;22.75;22.50;;;;;5.68;70.42;101370.78;4372765;32;12564;-80
2021/01/01 05:41:45;;;;;;;;;29.25;29.25;;;;;5.76;70.32;101372.13;4372767;32;12582;-80
2021/01/01 05:44:41;;;;;;;;;28.00;28.00;;;;;5.76;70.17;101372.13;4365193;32;12414;-81
2021/01/01 05:47:37;;;;;;;;;25.50;24.00;;;;;5.58;70.77;101365.31;4359151;32;12489;-81
2021/01/01 05:50:35;;;;;;;;;23.50;22.25;;;;;5.50;71.15;101347.53;4357575;33;12429;-81
2021/01/01 05:53:30;;;;;;;;;31.50;30.75;;;;;5.52;71.22;101355.47;4360536;32;12455;-83
2021/01/01 05:56:26;;;;;;;;;31.00;31.00;;;;;5.59;70.90;101342.25;4373741;32;12528;-81
2021/01/01 05:59:28;;;;;;;;;30.25;30.25;;;;;5.16;72.16;101324.63;4373616;32;12405;-82
2021/01/01 06:02:29;;;;;;;;;20.75;20.75;;;;;5.38;71.26;101349.78;4374584;32;12476;-81
2021/01/01 06:05:27;;;;;;;;;29.75;28.25;;;;;5.44;70.99;101337.66;4385222;32;12426;-81
2021/01/01 06:08:25;;;;;;;;;29.25;29.00;;;;;5.28;71.30;101323.19;4382334;32;12408;-82
2021/01/01 06:11:33;;;;;;;;;26.50;25.75;;;;;5.34;71.46;101347.88;4376143;32;12434;-82
2021/01/01 06:14:35;;;;;;;;;25.25;23.25;;;;;5.28;71.45;101339.63;4380574;32;12698;-82
2021/01/01 06:17:51;;;;;;;;;27.75;27.75;;;;;5.36;71.15;101319.03;4378651;32;12409;-81
2021/01/01 06:20:52;;;;;;;;;31.00;25.25;;;;;5.23;71.60;101316.91;4388837;32;12420;-80
2021/01/01 06:23:52;;;;;;;;;25.25;25.25;;;;;5.35;71.28;101308.34;4385236;32;12420;-78
2021/01/01 06:26:47;;;;;;;;;26.00;26.00;;;;;5.27;71.50;101321.53;4370775;32;12548;-78
2021/01/01 06:29:45;;;;;;;;;29.50;29.00;;;;;5.32;71.43;101319.91;4358573;33;12416;-78
2021/01/01 06:32:41;;;;;;;;;26.50;24.75;;;;;5.33;71.69;101332.50;4367585;32;12407;-78
2021/01/01 06:35:43;;;;;;;;;27.00;27.00;;;;;5.39;71.35;101325.91;4374472;32;12456;-78
2021/01/01 06:38:41;;;;;;;;;29.50;28.75;;;;;5.39;71.21;101323.16;4371617;32;12420;-79
2021/01/01 06:41:44;;;;;;;;;28.50;28.25;;;;;5.42;71.28;101331.66;4370996;32;12448;-80
2021/01/01 06:44:42;;;;;;;;;38.75;37.50;;;;;5.48;71.33;101319.56;4385225;32;12367;-80
2021/01/01 06:47:40;;;;;;;;;37.50;36.00;;;;;5.58;70.99;101346.94;4387433;32;13040;-79
2021/01/01 06:50:38;;;;;;;;;45.75;41.50;;;;;5.73;70.52;101323.25;4368357;32;12434;-80
2021/01/01 06:53:15;;;;;;;;;37.00;37.00;;;;;5.73;70.69;101334.25;4372452;32;12484;-79
2021/01/01 06:56:12;;;;;;;;;45.75;43.00;;;;;5.75;70.53;101321.91;4372721;32;12422;-79
2021/01/01 06:58:39;;;;;;;;;52.50;47.00;;;;;5.84;70.48;101341.34;4386539;32;12470;-79
2021/01/01 07:01:43;;;;;;;;;45.50;43.00;;;;;5.87;70.46;101332.53;4375097;32;12567;-79
2021/01/01 07:04:12;;;;;;;;;37.25;37.25;;;;;5.93;70.32;101353.38;4372838;32;13168;-79
2021/01/01 07:06:40;;;;;;;;;38.00;37.75;;;;;5.99;70.10;101365.97;4372731;32;12407;-79
2021/01/01 07:09:09;;;;;;;;;49.25;40.00;;;;;6.06;70.25;101355.50;4364306;32;12417;-79
2021/01/01 07:11:38;;;;;;;;;47.50;40.75;;;;;6.04;70.27;101351.38;4374506;32;12628;-78
2021/01/01 07:14:10;;;;;;;;;40.50;39.25;;;;;5.95;70.94;101359.41;4373350;32;13223;-78
2021/01/01 07:16:55;;;;;;;;;53.75;45.50;;;;;6.30;69.89;101366.59;4374689;32;12432;-79
2021/01/01 07:19:50;;;;;;;;;47.00;44.00;;;;;6.47;69.79;101360.69;4372441;32;12437;-75
2021/01/01 07:22:18;;;;;;;;;51.50;43.25;;;;;6.32;69.95;101361.63;4366294;32;12472;-75
2021/01/01 07:25:14;;;;;;;;;56.00;48.50;;;;;6.47;69.56;101355.22;4379635;32;12473;-75
2021/01/01 07:27:43;;;;;;;;;43.25;40.25;;;;;6.50;69.62;101359.28;4374713;32;12423;-75
2021/01/01 07:30:40;;;;;;;;;45.25;42.00;;;;;6.45;69.58;101351.94;4374437;32;12428;-75
2021/01/01 07:33:36;;;;;;;;;54.50;44.50;;;;;6.58;69.35;101350.44;4374412;32;12597;-76
2021/01/01 07:36:33;;;;;;;;;64.25;52.00;;;;;6.47;69.68;101349.72;4389065;32;12514;-75
2021/01/01 07:39:29;;;;;;;;;57.25;49.25;;;;;6.39;69.96;101348.41;4370907;32;12430;-75
2021/01/01 07:42:25;;;;;;;;;56.00;47.25;;;;;6.62;69.53;101352.34;4391175;32;12448;-75
2021/01/01 07:45:21;;;;;;;;;61.50;50.75;;;;;6.58;69.59;101340.25;4380473;32;12478;-75
2021/01/01 07:47:49;;;;;;;;;59.00;50.00;;;;;6.60;69.53;101354.56;4375817;32;12473;-76
2021/01/01 07:50:44;;;;;;;;;60.75;50.25;;;;;6.71;69.33;101365.44;4374798;32;12562;-76
2021/01/01 07:53:40;;;;;;;;;65.25;52.00;;;;;6.63;69.55;101366.91;4364042;32;13129;-76
2021/01/01 07:56:35;;;;;;;;;62.25;51.00;;;;;6.60;69.86;101362.81;4382686;32;12500;-76
2021/01/01 07:59:33;;;;;;;;;60.25;51.00;;;;;6.75;69.70;101356.34;4389103;32;13060;-75
2021/01/01 08:02:30;;;;;;;;;61.50;50.00;;;;;6.90;69.53;101344.38;4374500;32;13064;-77
2021/01/01 08:05:26;;;;;;;;;62.25;52.00;;;;;6.87;69.67;101351.28;4381524;32;12437;-75
2021/01/01 08:08:10;;;;;;;;;61.00;49.75;;;;;6.81;69.78;101366.16;4377781;32;12486;-75
2021/01/01 08:11:06;;;;;;;;;52.00;46.25;;;;;6.74;70.25;101365.69;4374137;32;12458;-75
2021/01/01 08:13:35;;;;;;;;;66.00;54.75;;;;;6.88;70.28;101355.66;4374977;32;12511;-75
2021/01/01 08:16:31;;;;;;;;;61.50;52.00;;;;;6.73;70.51;101350.31;4375296;32;12549;-75
2021/01/01 08:19:26;;;;;;;;;59.25;48.25;;;;;6.72;70.83;101348.66;4363457;32;12426;-76
2021/01/01 08:22:28;;;;;;;;;64.75;52.25;;;;;6.78;70.51;101354.94;4375950;32;12412;-76
2021/01/01 08:25:23;;;;;;;;;59.50;51.25;;;;;6.69;71.14;101360.25;4374582;32;12524;-75
2021/01/01 08:28:22;;;;;;;;;67.25;56.25;;;;;6.71;71.50;101344.28;4375498;32;12502;-75
2021/01/01 08:31:04;;;;;;;;;52.75;43.25;;;;;6.80;71.27;101331.53;4366809;32;13207;-74
2021/01/01 08:33:42;;;;;;;;;51.75;45.75;;;;;6.81;71.67;101326.88;4366124;32;12568;-74
2021/01/01 08:36:37;;;;;;;;;60.75;48.75;;;;;6.91;71.54;101333.09;4379518;32;12496;-75
2021/01/01 08:39:12;;;;;;;;;59.75;51.50;;;;;7.03;71.17;101345.63;4376367;32;12437;-75
2021/01/01 08:41:43;;;;;;;;;54.50;47.75;;;;;7.17;70.78;101357.56;4376363;32;12487;-75
2021/01/01 08:44:41;;;;;;;;;60.00;50.00;;;;;7.03;71.29;101351.13;4364360;32;13133;-76
2021/01/01 08:47:10;;;;;;;;;60.50;51.25;;;;;7.00;71.49;101343.47;4374491;32;12408;-76
2021/01/01 08:49:37;;;;;;;;;68.25;53.75;;;;;6.94;71.80;101338.00;4362857;32;12465;-75
2021/01/01 08:52:28;;;;;;;;;71.00;58.00;;;;;6.94;71.85;101329.75;4375386;32;12572;-75
2021/01/01 08:55:24;;;;;;;;;72.75;57.50;;;;;7.03;71.90;101323.62;4373968;32;12483;-75
2021/01/01 08:58:20;;;;;;;;;60.00;47.00;;;;;7.06;72.01;101332.13;4373759;32;12629;-75
2021/01/01 09:01:25;;;;;;;;;61.00;52.00;;;;;6.94;72.64;101337.19;4365209;32;12442;-75
2021/01/01 09:04:26;;;;;;;;;62.00;50.25;;;;;6.99;72.72;101334.38;4364066;32;12516;-74
2021/01/01 09:07:00;;;;;;;;;64.25;53.00;;;;;6.91;72.98;101327.59;4334085;33;12519;-75
2021/01/01 09:09:57;;;;;;;;;59.50;49.00;;;;;6.82;73.71;101323.00;4359253;32;12549;-75
2021/01/01 09:12:33;;;;;;;;;59.00;45.00;;;;;6.77;73.70;101323.06;4348725;32;12428;-76
2021/01/01 09:15:02;;;;;;;;;55.25;47.25;;;;;6.96;73.48;101324.78;4347902;32;12424;-75
2021/01/01 09:18:08;;;;;;;;;64.25;48.25;;;;;6.99;73.23;101333.56;4359708;32;13201;-75
2021/01/01 09:21:11;;;;;;;;;56.25;47.50;;;;;6.93;73.47;101314.38;4349788;33;12544;-75
2021/01/01 09:23:51;;;;;;;;;61.75;51.25;;;;;6.99;73.39;101312.38;4370409;32;12471;-75
2021/01/01 09:26:24;;;;;;;;;39.50;38.75;;;;;6.95;73.62;101314.06;4347977;32;12425;-76
2021/01/01 09:29:21;;;;;;;;;67.75;55.25;;;;;6.91;73.82;101310.28;4358645;33;12486;-75
2021/01/01 09:31:48;;;;;;;;;62.00;52.75;;;;;7.09;73.51;101304.00;4370490;32;12536;-75
2021/01/01 09:34:44;;;;;;;;;61.25;52.25;;;;;7.07;73.58;101298.00;4371967;32;12380;-75
2021/01/01 09:37:50;;;;;;;;;58.75;49.75;;;;;7.04;73.84;101289.50;4364517;32;12508;-76
2021/01/01 09:40:19;;;;;;;;;54.75;47.00;;;;;7.07;73.58;101297.19;4373400;32;12432;-75
2021/01/01 09:42:46;;;;;;;;;58.00;49.00;;;;;7.08;73.88;101287.81;4361955;32;13127;-75
2021/01/01 09:45:42;;;;;;;;;54.00;46.25;;;;;7.02;73.94;101299.97;4373898;32;12460;-76
2021/01/01 09:48:15;;;;;;;;;48.75;42.25;;;;;7.05;73.81;101299.38;4374405;32;12419;-75
2021/01/01 09:51:10;;;;;;;;;40.00;39.25;;;;;7.03;74.31;101309.84;4374854;32;12492;-76
2021/01/01 09:53:52;;;;;;;;;53.25;46.75;;;;;7.04;74.17;101298.56;4373594;32;13104;-76
2021/01/01 09:56:41;;;;;;;;;53.50;46.25;;;;;7.08;74.35;101285.06;4385696;32;12445;-75
2021/01/01 09:59:15;;;;;;;;;48.25;42.75;;;;;7.17;74.34;101280.53;4376266;32;12468;-76
2021/01/01 10:02:11;;;;;;;;;58.75;47.50;;;;;7.28;74.06;101276.53;4389952;32;12412;-75
2021/01/01 10:05:09;;;;;;;;;58.25;49.75;;;;;7.13;74.43;101280.31;4389357;32;13094;-76
2021/01/01 10:08:04;;;;;;;;;35.75;34.00;;;;;7.38;73.79;101283.88;4389419;32;12585;-76
2021/01/01 10:11:00;;;;;;;;;39.50;36.00;;;;;7.36;73.52;101286.06;4388918;32;13058;-76
2021/01/01 10:13:55;;;;;;;;;42.00;39.00;;;;;7.40;73.49;101267.87;4388455;32;13178;-76
2021/01/01 10:16:51;;;;;;;;;37.75;35.00;;;;;7.40;73.21;101268.69;4387607;32;12516;-76
2021/01/01 10:19:33;;;;;;;;;60.25;50.50;;;;;7.49;73.05;101261.41;4388548;32;12456;-74
2021/01/01 10:22:23;;;;;;;;;45.75;43.00;;;;;7.50;73.45;101253.97;4367137;32;12470;-76
2021/01/01 10:25:19;;;;;;;;;42.50;41.00;;;;;7.61;73.09;101268.44;4359038;32;12570;-76
2021/01/01 10:27:47;;;;;;;;;43.75;40.75;;;;;7.54;73.33;101263.28;4369836;32;12422;-75
2021/01/01 10:30:42;;;;;;;;;31.75;31.75;;;;;7.75;72.62;101259.12;4350191;32;12516;-76
2021/01/01 10:33:38;;;;;;;;;29.00;28.00;;;;;7.81;72.51;101266.16;4376070;32;12515;-75
2021/01/01 10:36:33;;;;;;;;;35.25;32.75;;;;;7.71;72.61;101274.59;4378143;32;12415;-74
2021/01/01 10:39:29;;;;;;;;;31.00;27.50;;;;;7.69;72.66;101287.03;4388175;32;13109;-75
2021/01/01 10:42:26;;;;;;;;;36.50;34.50;;;;;7.68;72.82;101291.72;4347484;33;12576;-75
2021/01/01 10:45:21;;;;;;;;;35.75;35.50;;;;;7.72;72.86;101295.50;4359306;33;12433;-74
2021/01/01 10:47:51;;;;;;;;;29.25;29.25;;;;;7.69;72.99;101287.03;4345537;33;12424;-75
2021/01/01 10:50:47;;;;;;;;;38.00;34.25;;;;;7.66;73.44;101304.13;4354347;32;12485;-75
2021/01/01 10:53:30;;;;;;;;;36.50;35.50;;;;;7.76;73.30;101279.22;4388809;32;12478;-75
2021/01/01 10:56:27;;;;;;;;;43.25;39.75;;;;;7.37;74.96;101285.00;4377319;32;12458;-75
2021/01/01 10:59:24;;;;;;;;;51.00;45.25;;;;;7.66;74.31;101274.66;4387223;32;12419;-76
2021/01/01 11:01:55;;;;;;;;;59.00;47.25;;;;;7.73;74.12;101272.34;4379241;32;12408;-76
2021/01/01 11:04:51;;;;;;;;;39.75;37.25;;;;;7.75;74.60;101264.63;4358239;33;12581;-75
2021/01/01 11:07:20;;;;;;;;;46.50;42.50;;;;;7.80;74.52;101255.47;4345478;33;12516;-75
2021/01/01 11:10:17;;;;;;;;;39.50;38.75;;;;;7.78;74.40;101244.75;4359389;33;12480;-75
2021/01/01 11:13:13;;;;;;;;;41.00;40.00;;;;;7.80;74.44;101253.53;4349948;33;12463;-75
2021/01/01 12:20:04;;;;;;;;;49.25;44.75;;;;;8.12;75.31;101270.38;4351720;32;12411;-74
2021/01/01 12:25:07;;;;;;;;;49.75;44.50;;;;;8.20;74.98;101259.50;4360392;32;13212;-74
2021/01/01 12:28:05;;;;;;;;;57.00;49.00;;;;;8.21;74.89;101260.34;4349471;33;13117;-75
2021/01/01 12:31:05;;;;;;;;;46.50;41.00;;;;;8.14;75.02;101259.91;4351129;32;12555;-74
2021/01/01 12:33:36;;;;;;;;;46.50;43.00;;;;;8.22;74.83;101253.72;4370794;32;12561;-74
2021/01/01 12:36:33;;;;;;;;;42.25;40.50;;;;;8.19;74.54;101257.06;4360101;32;12464;-74
2021/01/01 12:39:15;;;;;;;;;56.50;48.75;;;;;8.35;74.34;101252.94;4335426;33;12503;-75
2021/01/01 12:42:10;;;;;;;;;58.00;49.50;;;;;8.29;74.67;101254.16;4351117;32;12582;-74
2021/01/01 12:45:06;;;;;;;;;61.50;51.00;;;;;8.23;74.96;101258.09;4383851;32;12506;-75
2021/01/01 12:48:02;;;;;;;;;64.00;52.75;;;;;8.27;74.46;101270.97;4375180;32;12429;-75
2021/01/01 12:50:58;;;;;;;;;47.50;40.50;;;;;8.20;74.43;101284.28;4359944;32;12655;-75
2021/01/01 12:53:40;;;;;;;;;40.00;38.50;;;;;8.21;74.58;101282.38;4360299;32;12526;-75
2021/01/01 12:56:08;;;;;;;;;54.25;45.75;;;;;8.30;74.37;101273.13;4360329;32;12436;-75
2021/01/01 12:59:04;;;;;;;;;35.00;35.00;;;;;8.13;74.93;101283.88;4360067;32;12525;-75
2021/01/01 13:01:59;;;;;;;;;56.50;49.00;;;;;8.16;74.46;101285.22;4361004;32;12427;-76
2021/01/01 13:04:55;;;;;;;;;43.75;41.25;;;;;8.25;74.56;101289.72;4360542;32;12618;-75
2021/01/01 13:07:25;;;;;;;;;49.00;44.50;;;;;8.21;74.49;101298.94;4360645;32;12481;-75
2021/01/01 13:10:21;;;;;;;;;44.75;40.75;;;;;8.22;74.31;101295.03;4359746;32;12438;-75
2021/01/01 13:12:49;;;;;;;;;47.75;42.75;;;;;8.23;74.40;101289.22;4361178;32;12439;-75
2021/01/01 13:15:44;;;;;;;;;51.50;43.25;;;;;8.07;74.98;101293.34;4379327;32;12400;-75
2021/01/01 13:18:40;;;;;;;;;42.25;37.00;;;;;8.13;75.03;101299.56;4388820;32;12493;-75
2021/01/01 13:21:39;;;;;;;;;37.50;37.25;;;;;8.08;75.05;101300.50;4377546;32;12593;-75
2021/01/01 13:24:34;;;;;;;;;41.00;38.50;;;;;8.04;75.11;101313.22;4377979;32;12407;-75
2021/01/01 13:27:01;;;;;;;;;47.00;39.50;;;;;8.16;74.81;101312.78;4387255;32;12530;-75
2021/01/01 13:29:33;;;;;;;;;39.50;37.75;;;;;8.19;74.67;101312.16;4362534;32;12442;-75
2021/01/01 13:32:02;;;;;;;;;43.00;41.00;;;;;8.17;74.69;101320.72;4361863;32;12455;-75
2021/01/01 13:34:58;;;;;;;;;42.50;40.75;;;;;8.16;74.86;101321.84;4374226;32;12471;-75
2021/01/01 13:37:54;;;;;;;;;41.50;40.50;;;;;8.09;74.96;101322.22;4353690;32;12423;-75
2021/01/01 13:40:49;;;;;;;;;23.25;22.50;;;;;8.17;74.68;101328.19;4374211;32;12424;-75
2021/01/01 13:43:45;;;;;;;;;46.75;41.75;;;;;8.20;74.70;101327.56;4373038;32;11897;-75
2021/01/01 13:46:41;;;;;;;;;44.50;40.00;;;;;8.12;75.03;101331.81;4375552;32;12421;-75
2021/01/01 13:49:08;;;;;;;;;58.00;49.00;;;;;8.06;75.11;101336.59;4374257;32;12416;-75
2021/01/01 13:52:04;;;;;;;;;49.50;42.50;;;;;8.13;75.05;101321.63;4372208;32;12437;-75
2021/01/01 13:55:00;;;;;;;;;52.75;44.00;;;;;8.20;74.96;101322.06;4358614;33;12488;-75
2021/01/01 13:57:27;;;;;;;;;65.00;53.75;;;;;8.20;74.98;101298.06;4364745;32;12440;-74
2021/01/01 14:00:23;;;;;;;;;60.00;50.75;;;;;8.13;75.33;101289.41;4372705;32;12563;-74
2021/01/01 14:03:19;;;;;;;;;65.25;55.25;;;;;8.04;75.67;101280.97;4372050;32;12433;-74
2021/01/01 14:06:07;;;;;;;;;51.50;42.50;;;;;8.19;75.21;101276.34;4363215;32;12477;-75
2021/01/01 14:09:03;;;;;;;;;67.25;55.75;;;;;8.24;74.87;101273.50;4362176;32;12451;-74
2021/01/01 14:11:59;;;;;;;;;53.00;45.25;;;;;8.00;75.90;101257.91;4372467;32;12418;-74
2021/01/01 14:14:55;;;;;;;;;41.75;40.75;;;;;7.98;76.08;101240.06;4363127;32;12554;-75
2021/01/01 14:17:30;;;;;;;;;60.25;49.25;;;;;7.98;75.93;101262.91;4372782;32;12484;-74